Terminal Aerodrome Forecast
Issued by NWS

Home | Current Version | Previous Version | Graphics & Text | Print | Product List | Glossary On
Versions: 1 2 3 4 5 6 7 8 9 10 11 12 13 14 15 16 17 18 19 20 21 22 23 24 25 26 27 28 29 30
000
FTUS43 KLOT 212300 RRA
TAFMDW
TAF
KMDW 212342Z 2200/2224 26010G20KT 6SM SHRA VCTS BKN040 OVC060CB
     FM220045 30008KT 6SM SHRA OVC045
     FM220200 31008KT P6SM OVC045
     FM220600 35012G18KT P6SM FEW070
     FM222200 03008G17KT P6SM FEW250=

USA.gov is the U.S. government's official web portal to all federal, state and local government web resources and services.